Historyczne dane pomiarowe

Dodano dane terminowe – wersja testowa.

Dane z okresu 1951-2019

Wersja bazy: 1.34 [2019-03-16, lista zmian], aktualizacja planowana na 2019-04-15

Dane meteo z obszaru Polski uzyskane na podstawie danych udostępnionych przez Instytut Meteorologii i Gospodarki Wodnej – Państwowy Instytut Badawczy.

 

Wybierz Datę:    

       

TemperaturaWilgotnośćWiatrCiśnienieOpadyŚniegCzas trwania zjawisk
 Stacja t tx tn tng RH VA  wxwx mslp ppp RRR   cm mm wxwxwxwxwxwxwx
1956-11-09 0.0 3.6 -1.9 -5.1 70.0- 0.7 8.0---- 0.0------------
1956-11-08 2.1 4.0 1.3 1.1 79.0- 5.0 4.3---- 0.0------------
1956-11-07 2.4 3.6 2.0 0.5 95.8- 8.0 2.0---- 1.6------------
1956-11-06 3.2 6.2 0.9 -3.1 86.5- 7.0 4.0---- 9.0------------
1956-11-05 5.5 9.6 3.1 4.4 70.8- 4.0 6.0---- 0.2------------
1956-11-04 4.8 5.8 1.1 -0.3 87.5- 8.0 3.3---- 1.9------------
1956-11-03 1.5 5.8 -3.2 -7.6 83.5- 4.7 1.3---- 0.0------------
1956-11-02 3.7 6.6 1.4 1.1 85.5- 7.0 2.0---- 0.2------------
1956-11-01 0.1 2.5 -6.3-10.3 82.3- 7.7 3.7---- 1.2------------
1956-10-31 -3.5 1.9 -6.2 -7.7 71.3- 1.7 2.7---- 0.0------------
1956-10-30 1.3 2.6 0.6 0.6 85.5- 8.0 6.7---- 0.0------------
1956-10-29 4.1 8.8 2.2 5.5 94.3- 8.0 4.0---- 4.3------------
1956-10-28 8.6 9.3 7.1 6.8 97.5- 8.0 3.0---- 0.7------------
1956-10-27 7.1 7.6 2.3 -1.0 95.3- 8.0 5.7---- 21.5------------
1956-10-26 5.7 9.4 4.2 0.0 86.0- 5.0 2.0---- 0.0------------
1956-10-25 10.0 13.9 7.2 9.3 83.0- 3.7 4.7---- 0.0------------
1956-10-24 12.9 14.8 10.2 8.0 86.0- 7.3 4.0---- 0.0------------
1956-10-23 11.8 14.2 9.9 8.9 79.3- 6.7 4.0---- 0.0------------
1956-10-22 12.2 13.3 11.5 10.9 82.0- 8.0 4.7---- 0.0------------
1956-10-21 12.9 14.6 9.2 6.8 87.8- 8.0 3.3---- 0.0------------
1956-10-20 11.2 12.9 7.4 5.0 92.3- 8.0 3.3---- 1.4------------
1956-10-19 11.4 14.8 9.3 11.3 85.8- 7.0 3.3---- 0.0------------
1956-10-18 13.3 14.8 11.9 10.3 97.8- 8.0 3.7---- 6.8------------
1956-10-17 11.8 15.3 4.6 -1.0 73.0- 3.0 4.3---- 0.6------------
1956-10-16 5.4 14.0 -1.8 -4.3 83.8- 0.0 1.7---- 0.0------------
1956-10-15 5.1 13.4 2.6 -1.1 85.8- 0.0 0.7---- 0.0------------
1956-10-14 8.9 14.4 5.1 6.4 82.8- 3.0 3.3---- 0.0------------
1956-10-13 11.9 13.6 9.4 7.1 74.3- 7.7 7.7---- 1.3------------
1956-10-12 9.7 13.0 8.6 6.5 86.3- 7.7 6.3---- 0.0------------
1956-10-11 8.7 12.9 3.4 0.9 87.0- 7.3 3.3---- 0.0------------
1956-10-10 5.1 10.8 -1.3 -4.7 84.3- 3.0 2.0---- 0.0------------
1956-10-09 8.2 12.1 6.3 5.5 91.5- 5.3 3.7---- 0.9------------
1956-10-08 6.9 10.0 3.4 0.0 77.5- 6.3 3.3---- 2.7------------
1956-10-07 4.8 9.7 3.9 1.8 91.5- 4.0 3.7---- 0.9------------
1956-10-06 6.5 10.2 3.4 2.0 87.8- 5.0 3.0---- 5.3------------
1956-10-05 7.7 10.3 6.3 5.0 86.8- 4.3 3.3---- 3.1------------
1956-10-04 10.6 14.7 9.1 4.5 87.0- 5.3 5.0---- 0.0------------
1956-10-03 12.2 16.4 10.4 12.7 88.0- 5.0 3.7---- 5.0------------
1956-10-02 17.3 21.4 11.3 8.4 84.5- 6.7 5.0---- 19.0------------
1956-10-01 14.4 18.4 7.1 3.0 94.0- 6.0 2.3---- 2.3------------
1956-09-30 12.5 19.1 9.4 6.2 84.8- 2.0 2.0---- 8.6------------
1956-09-29 13.6 17.4 11.9 10.5 85.8- 4.3 5.7---- 0.0------------
1956-09-28 15.4 17.9 12.8 10.5 84.0- 7.0 6.7---- 2.6------------
1956-09-27 14.9 17.4 10.0 5.9 92.8- 5.3 2.7---- 0.0------------
1956-09-26 13.7 22.1 7.9 5.5 79.3- 0.3 4.0---- 0.0------------
1956-09-25 13.4 21.1 6.0 2.4 72.3- 0.0 4.7---- 0.0------------
1956-09-24 11.1 18.1 6.9 4.0 63.3- 0.0 5.7---- 0.0------------
1956-09-23 13.9 20.1 9.0 5.3 72.3- 0.0 4.7---- 0.0------------
1956-09-22 13.6 20.9 7.6 4.0 73.5- 0.0 4.0---- 0.0------------
1956-09-21 10.9 19.4 2.4 1.2 83.5- 2.7 0.7---- 0.0------------
1956-09-20 10.0 17.5 1.5 -0.1 88.3- 1.7 1.3---- 0.0------------
1956-09-19 9.4 17.1 1.6 -0.3 79.5- 2.3 1.7---- 0.0------------
1956-09-18 8.5 15.5 2.9 -0.6 88.0- 2.7 0.0---- 0.0------------
1956-09-17 10.9 15.9 8.8 6.9 89.8- 4.7 2.0---- 1.6------------
1956-09-16 12.4 16.6 7.1 3.7 75.3- 7.3 3.7---- 0.1------------
1956-09-15 11.4 16.9 8.9 7.9 76.8- 3.0 2.7---- 0.0------------
1956-09-14 11.6 17.5 4.0 1.0 83.0- 3.7 1.0---- 0.0------------
1956-09-13 11.6 14.7 8.4 5.8 83.3- 5.0 6.7---- 3.0------------
1956-09-12 11.5 15.9 9.8 9.7 85.3- 4.3 3.7---- 4.5------------
1956-09-11 15.8 19.4 13.6 12.2 87.8- 6.3 2.0---- 11.4------------
239.8 ms

 

Źródłem pochodzenia danych jest Instytut Meteorologii i Gospodarki Wodnej – Państwowy Instytut Badawczy. Dane Instytutu Meteorologii i Gospodarki Wodnej – Państwowego Instytutu Badawczego zostały przetworzone.

Dane źródłowe można odnaleźć na stronie https://dane.imgw.pl